createdAt,value
2023-02-13T00:00:01.517Z,3.9
2023-02-13T00:05:00.450Z,3.9
2023-02-13T00:10:01.373Z,3.9
2023-02-13T00:15:01.485Z,3.9
2023-02-13T00:20:01.376Z,3.9
2023-02-13T00:25:00.510Z,3.9
2023-02-13T00:30:01.303Z,3.9
2023-02-13T00:35:00.557Z,3.9
2023-02-13T00:40:01.327Z,3.9
2023-02-13T00:45:01.379Z,4
2023-02-13T00:50:01.458Z,4
2023-02-13T00:55:00.462Z,4.1
2023-02-13T01:00:01.362Z,4.1
2023-02-13T01:05:00.492Z,4.1
2023-02-13T01:10:01.367Z,4.2
2023-02-13T01:15:01.397Z,4.2
2023-02-13T01:20:01.346Z,4.2
2023-02-13T01:25:00.584Z,4.3
2023-02-13T01:30:01.367Z,4.3
2023-02-13T01:35:00.458Z,4.3
2023-02-13T01:40:01.375Z,4.3
2023-02-13T01:45:01.407Z,4.4
2023-02-13T01:50:01.418Z,4.4
2023-02-13T01:55:00.562Z,4.4
2023-02-13T02:00:01.350Z,4.4
2023-02-13T02:05:00.480Z,4.4
2023-02-13T02:10:01.481Z,4.4
2023-02-13T02:15:01.452Z,4.5
2023-02-13T02:20:01.372Z,4.5
2023-02-13T02:25:00.524Z,4.5
2023-02-13T02:30:01.337Z,4.5
2023-02-13T02:35:00.504Z,4.6
2023-02-13T02:40:01.351Z,4.6
2023-02-13T02:45:01.373Z,4.6
2023-02-13T02:50:01.449Z,4.6
2023-02-13T02:55:00.482Z,4.6
2023-02-13T03:00:01.373Z,4.6
2023-02-13T03:05:00.508Z,4.6
2023-02-13T03:10:01.470Z,4.6
2023-02-13T03:15:01.404Z,4.6
2023-02-13T03:20:01.297Z,4.6
2023-02-13T03:25:00.557Z,4.6
2023-02-13T03:30:01.399Z,4.7
2023-02-13T03:35:00.484Z,4.7
2023-02-13T03:40:01.413Z,4.7
2023-02-13T03:45:01.386Z,4.7
2023-02-13T03:50:01.360Z,4.8
2023-02-13T03:55:00.568Z,4.8
2023-02-13T04:00:01.409Z,4.8
2023-02-13T04:05:00.494Z,4.8
2023-02-13T04:10:01.385Z,4.9
2023-02-13T04:15:01.523Z,4.9
2023-02-13T04:20:01.492Z,4.9
2023-02-13T04:25:00.668Z,4.9
2023-02-13T04:30:01.377Z,4.9
2023-02-13T04:35:00.478Z,4.9
2023-02-13T04:40:01.473Z,4.9
2023-02-13T04:45:01.465Z,4.9
2023-02-13T04:50:01.402Z,4.9
2023-02-13T04:55:00.469Z,4.9
2023-02-13T05:00:01.392Z,4.9
2023-02-13T05:05:00.493Z,4.9
2023-02-13T05:10:01.400Z,4.9
2023-02-13T05:15:01.541Z,4.9
2023-02-13T05:20:01.314Z,4.9
2023-02-13T05:25:00.569Z,4.9
2023-02-13T05:30:01.443Z,4.9
2023-02-13T05:35:02.105Z,4.9
2023-02-13T05:40:01.281Z,4.9
2023-02-13T05:45:01.441Z,4.9
2023-02-13T05:50:01.376Z,4.9
2023-02-13T05:55:00.446Z,4.9
2023-02-13T06:00:01.471Z,4.8
2023-02-13T06:05:00.478Z,4.8
2023-02-13T06:10:01.321Z,4.9
2023-02-13T06:15:01.423Z,4.8
2023-02-13T06:20:01.409Z,4.8
2023-02-13T06:25:00.526Z,4.8
2023-02-13T06:30:01.441Z,4.8
2023-02-13T06:35:00.551Z,4.8
2023-02-13T06:40:01.390Z,4.8
2023-02-13T06:45:01.387Z,4.8
2023-02-13T06:50:01.411Z,4.8
2023-02-13T06:55:00.626Z,4.8
2023-02-13T07:00:01.329Z,4.9
2023-02-13T07:05:00.479Z,4.9
2023-02-13T07:10:01.272Z,4.9
2023-02-13T07:15:01.279Z,4.9
2023-02-13T07:20:01.355Z,4.9
2023-02-13T07:25:00.427Z,4.9
2023-02-13T07:30:01.416Z,4.9
2023-02-13T07:35:02.264Z,4.9
2023-02-13T07:40:01.318Z,4.9
2023-02-13T07:45:01.400Z,4.9
2023-02-13T07:50:01.392Z,4.9
2023-02-13T07:55:00.492Z,4.9
2023-02-13T08:00:01.388Z,5
2023-02-13T08:05:00.477Z,5
2023-02-13T08:10:01.504Z,5
2023-02-13T08:15:01.509Z,5
2023-02-13T08:20:01.455Z,5
2023-02-13T08:25:00.449Z,4.9
2023-02-13T08:30:01.400Z,5
2023-02-13T08:35:00.515Z,5
2023-02-13T08:40:01.322Z,5
2023-02-13T08:45:01.355Z,5
2023-02-13T08:50:01.556Z,5.1
2023-02-13T08:55:00.552Z,5
2023-02-13T09:00:01.443Z,5
2023-02-13T09:05:00.540Z,5
2023-02-13T09:10:01.444Z,5
2023-02-13T09:15:01.401Z,5.1
2023-02-13T09:20:01.381Z,5.1
2023-02-13T09:25:00.460Z,5.1
2023-02-13T09:30:01.532Z,5.1
2023-02-13T09:35:00.519Z,5
2023-02-13T09:40:01.411Z,5
2023-02-13T09:45:01.411Z,5
2023-02-13T09:50:01.349Z,5
2023-02-13T09:55:00.473Z,5.1
2023-02-13T10:00:01.449Z,5
2023-02-13T10:05:00.474Z,5
2023-02-13T10:10:01.349Z,5
2023-02-13T10:15:01.456Z,5.1
2023-02-13T10:20:01.462Z,5
2023-02-13T10:25:00.505Z,5.1
2023-02-13T10:30:01.332Z,5.1
2023-02-13T10:35:00.491Z,5.1
2023-02-13T10:40:01.354Z,5.1
2023-02-13T10:45:01.457Z,5.1
2023-02-13T10:50:01.392Z,5.2
2023-02-13T10:55:02.466Z,5.1
2023-02-13T11:00:01.452Z,5.2
2023-02-13T11:05:00.477Z,5.2
2023-02-13T11:10:01.421Z,5.1
2023-02-13T11:15:01.491Z,5.1
2023-02-13T11:20:01.343Z,5.1
2023-02-13T11:25:00.590Z,5.2
2023-02-13T11:30:01.418Z,5.2
2023-02-13T11:35:00.472Z,5.1
2023-02-13T11:40:01.315Z,5.2
2023-02-13T11:45:01.327Z,5.2
2023-02-13T11:50:01.510Z,5.3
2023-02-13T11:55:00.441Z,5.4
2023-02-13T12:00:01.506Z,5.5
2023-02-13T12:05:00.479Z,5.5
2023-02-13T12:10:01.459Z,5.6
2023-02-13T12:15:01.316Z,5.5
2023-02-13T12:20:01.406Z,5.6
2023-02-13T12:25:00.501Z,5.6
2023-02-13T12:30:01.327Z,5.5
2023-02-13T12:35:00.453Z,5.5
2023-02-13T12:40:01.416Z,5.6
2023-02-13T12:50:01.384Z,5.6
2023-02-13T12:55:00.446Z,5.6
2023-02-13T13:00:01.292Z,5.7
2023-02-13T13:05:00.442Z,5.7
2023-02-13T13:10:01.401Z,5.7
2023-02-13T13:15:01.477Z,5.7
2023-02-13T13:20:01.396Z,5.7
2023-02-13T13:25:00.570Z,5.7
2023-02-13T13:30:01.586Z,5.9
2023-02-13T13:35:00.537Z,5.9
2023-02-13T13:40:01.370Z,5.8
2023-02-13T13:45:01.363Z,5.9
2023-02-13T13:50:01.334Z,6
2023-02-13T13:55:00.720Z,5.9
2023-02-13T14:00:01.455Z,5.8
2023-02-13T14:05:00.536Z,5.7
2023-02-13T14:10:01.397Z,5.9
2023-02-13T14:15:01.444Z,5.9
2023-02-13T14:20:01.371Z,5.8
2023-02-13T14:25:00.440Z,5.8
2023-02-13T14:30:01.389Z,5.8
2023-02-13T14:35:00.516Z,5.8
2023-02-13T14:40:02.123Z,5.9
2023-02-13T14:45:01.384Z,5.9
2023-02-13T14:50:01.358Z,5.9
2023-02-13T14:55:00.516Z,5.8
2023-02-13T15:00:01.341Z,5.8
2023-02-13T15:05:00.414Z,5.8
2023-02-13T15:10:01.381Z,5.8
2023-02-13T15:15:01.397Z,5.8
2023-02-13T15:20:01.287Z,5.8
2023-02-13T15:25:00.466Z,5.6
2023-02-13T15:30:01.643Z,5.7
2023-02-13T15:35:00.454Z,5.7
2023-02-13T15:40:01.333Z,5.7
2023-02-13T15:45:01.382Z,5.7
2023-02-13T15:50:01.418Z,5.7
2023-02-13T15:55:00.467Z,5.6
2023-02-13T16:00:01.446Z,5.4
2023-02-13T16:05:00.460Z,5.3
2023-02-13T16:10:01.321Z,5
2023-02-13T16:15:01.424Z,5
2023-02-13T16:20:01.605Z,4.9
2023-02-13T16:25:01.914Z,4.9
2023-02-13T16:30:01.416Z,4.8
2023-02-13T16:35:00.738Z,4.9
2023-02-13T16:40:01.278Z,4.8
2023-02-13T16:45:01.675Z,4.7
2023-02-13T16:50:01.316Z,4.7
2023-02-13T17:00:10.318Z,4.7
2023-02-13T17:05:01.534Z,4.6
2023-02-13T17:10:00.435Z,4.6
2023-02-13T17:15:00.403Z,4.5
2023-02-13T17:20:00.487Z,4.5
2023-02-13T17:25:00.427Z,4.5
2023-02-13T17:30:01.204Z,4.4
2023-02-13T17:35:00.512Z,4.4
2023-02-13T17:40:00.493Z,4.4
2023-02-13T17:45:00.488Z,4.4
2023-02-13T18:05:00.374Z,4.3
2023-02-13T18:10:00.441Z,4.3
2023-02-13T18:15:00.463Z,4.2
2023-02-13T18:20:00.391Z,4.3
2023-02-13T18:25:00.418Z,4.2
2023-02-13T18:30:00.536Z,4.3
2023-02-13T18:35:00.453Z,4.5
2023-02-13T18:40:00.376Z,4.5
2023-02-13T18:45:01.256Z,4.5
2023-02-13T18:50:00.393Z,4.5
2023-02-13T18:55:01.135Z,4.4
2023-02-13T19:00:00.492Z,4.3
2023-02-13T19:05:00.468Z,4.3
2023-02-13T19:10:00.520Z,4.2
2023-02-13T19:15:00.426Z,4.2
2023-02-13T19:20:00.445Z,4.2
2023-02-13T19:25:00.669Z,4.1
2023-02-13T19:30:00.446Z,4
2023-02-13T19:35:00.418Z,4
2023-02-13T19:40:00.426Z,4
2023-02-13T19:45:00.390Z,4
2023-02-13T19:50:00.435Z,4
2023-02-13T19:55:00.472Z,4
2023-02-13T20:00:00.427Z,4
2023-02-13T20:05:00.449Z,3.9
2023-02-13T20:10:00.495Z,3.9
2023-02-13T20:15:00.415Z,3.9
2023-02-13T20:20:00.472Z,3.9
2023-02-13T20:25:00.495Z,3.9
2023-02-13T20:30:06.253Z,3.9
2023-02-13T20:35:00.553Z,3.9
2023-02-13T20:40:00.399Z,3.9
2023-02-13T20:45:00.384Z,3.9
2023-02-13T20:50:00.399Z,3.9
2023-02-13T20:55:00.463Z,3.9
2023-02-13T21:00:00.388Z,3.9
2023-02-13T21:05:00.498Z,3.9
2023-02-13T21:10:00.413Z,3.9
2023-02-13T21:15:00.407Z,3.9
2023-02-13T21:20:00.405Z,3.8
2023-02-13T21:25:00.426Z,3.8
2023-02-13T21:30:00.515Z,3.8
2023-02-13T21:35:00.368Z,3.8
2023-02-13T21:40:00.364Z,3.8
2023-02-13T21:45:00.440Z,3.8
2023-02-13T21:50:00.424Z,3.8
2023-02-13T21:55:00.414Z,3.8
2023-02-13T22:00:00.433Z,3.8
2023-02-13T22:05:00.393Z,3.8
2023-02-13T22:10:00.461Z,3.8
2023-02-13T22:15:00.400Z,3.8
2023-02-13T22:20:00.393Z,3.8
2023-02-13T22:25:00.527Z,3.8
2023-02-13T22:30:00.483Z,3.9
2023-02-13T22:35:00.427Z,4
2023-02-13T22:40:00.481Z,3.9
2023-02-13T22:45:00.441Z,4
2023-02-13T22:50:00.423Z,4
2023-02-13T22:55:00.487Z,4.2
2023-02-13T23:00:00.483Z,4.2
2023-02-13T23:05:00.532Z,4.2
2023-02-13T23:10:00.487Z,4.3
2023-02-13T23:15:00.456Z,4.3
2023-02-13T23:20:00.395Z,4.3
2023-02-13T23:25:00.422Z,4.3
2023-02-13T23:30:00.762Z,4.3
2023-02-13T23:35:00.412Z,4.3
2023-02-13T23:40:00.489Z,4.3
2023-02-13T23:45:00.447Z,4.3
2023-02-13T23:50:00.398Z,4.3
2023-02-13T23:55:00.382Z,4.3
